Time;durP1;ratioP1;P1;durP2;ratioP2;P2;SDS_P1;SDS_P2;PMS_P1;PMS_P2;Temp;Humidity;BMP_temperature;BMP_pressure;BME280_temperature;BME280_humidity;BME280_pressure;Samples;Min_cycle;Max_cycle;Signal;HPM_P1;HPM_P2
2023/03/28 05:52:13;;;;;;;;;;;;;;;6.95;53.31;97743.56;4245558;27;10257;-67
2023/03/28 05:54:16;;;;;;;;;;;;;;;7.23;52.96;97749.59;4231533;27;5684;-67
2023/03/28 05:56:18;;;;;;;;;;;;;;;7.46;52.55;97745.53;4216840;28;5711;-66
2023/03/28 05:58:21;;;;;;;;;;;;;;;7.67;52.49;97749.69;4217318;28;5688;-66
2023/03/28 06:00:24;;;;;;;;;;;;;;;7.81;51.96;97749.13;4230668;28;5660;-66
2023/03/28 06:02:29;;;;;;;;;;;;;;;7.93;51.87;97761.09;4230654;28;5747;-66
2023/03/28 06:04:32;;;;;;;;;;;;;;;8.01;51.63;97769.03;4231554;28;5656;-66
2023/03/28 06:06:35;;;;;;;;;;;;;;;8.11;51.50;97764.53;4231737;28;6518;-66
2023/03/28 06:08:40;;;;;;;;;;;;;;;8.21;51.65;97768.88;4231460;28;6344;-66
2023/03/28 06:10:43;;;;;;;;;;;;;;;8.28;51.30;97768.09;4227103;28;5802;-66
2023/03/28 06:12:46;;;;;;;;;;;;;;;8.30;51.31;97771.41;4225763;28;5671;-67
2023/03/28 06:14:49;;;;;;;;;;;;;;;8.35;51.17;97765.69;4227747;28;5675;-66
2023/03/28 06:16:51;;;;;;;;;;;;;;;8.39;51.16;97767.06;4227128;28;5822;-66
2023/03/28 06:18:55;;;;;;;;;;;;;;;8.40;51.22;97763.44;4231170;28;5655;-67
2023/03/28 06:21:12;;;;;;;;;;;;;;;8.42;50.79;97766.72;4229803;28;5742;-67
2023/03/28 06:23:15;;;;;;;;;;;;;;;8.42;50.81;97767.56;4230101;28;5691;-66
2023/03/28 06:25:19;;;;;;;;;;;;;;;8.48;50.91;97770.53;4229916;28;5865;-66
2023/03/28 06:27:22;;;;;;;;;;;;;;;8.51;50.74;97770.25;4224109;28;6325;-67
2023/03/28 06:29:25;;;;;;;;;;;;;;;8.52;50.92;97772.72;4229689;28;5782;-66
2023/03/28 06:31:28;;;;;;;;;;;;;;;8.56;50.63;97767.97;4230942;28;5738;-66
2023/03/28 06:33:31;;;;;;;;;;;;;;;8.56;50.51;97778.50;4231088;28;5675;-66
2023/03/28 06:35:34;;;;;;;;;;;;;;;8.57;50.57;97774.88;4230246;28;5691;-66
2023/03/28 06:37:37;;;;;;;;;;;;;;;8.59;50.59;97773.72;4230613;28;5723;-67
2023/03/28 06:39:41;;;;;;;;;;;;;;;8.61;50.25;97782.34;4231299;28;5765;-66
2023/03/28 06:41:45;;;;;;;;;;;;;;;8.63;50.45;97779.53;4228251;28;5667;-66
2023/03/28 06:43:48;;;;;;;;;;;;;;;8.62;50.42;97775.25;4231113;28;6377;-66
2023/03/28 06:45:51;;;;;;;;;;;;;;;8.65;50.44;97783.66;4230473;28;5703;-66
2023/03/28 06:47:54;;;;;;;;;;;;;;;8.67;50.52;97781.69;4230367;28;5671;-66
2023/03/28 06:49:57;;;;;;;;;;;;;;;8.67;50.48;97781.69;4228730;28;5675;-66
2023/03/28 06:52:00;;;;;;;;;;;;;;;8.68;50.27;97772.78;4224845;28;5647;-66
2023/03/28 06:54:03;;;;;;;;;;;;;;;8.68;50.36;97775.44;4219512;28;5758;-66
2023/03/28 06:56:07;;;;;;;;;;;;;;;8.68;50.07;97772.78;4219707;28;5675;-66
2023/03/28 06:58:12;;;;;;;;;;;;;;;8.71;50.02;97774.28;4219265;28;5871;-66
2023/03/28 07:00:16;;;;;;;;;;;;;;;8.71;50.10;97766.38;4218796;28;5766;-66
2023/03/28 07:02:22;;;;;;;;;;;;;;;8.74;50.18;97769.53;4218962;28;5897;-66
2023/03/28 07:04:25;;;;;;;;;;;;;;;8.79;49.97;97770.88;4218900;28;5856;-66
2023/03/28 07:06:28;;;;;;;;;;;;;;;8.79;49.88;97769.06;4218284;28;5893;-66
2023/03/28 07:08:31;;;;;;;;;;;;;;;8.80;49.55;97775.97;4218576;28;5687;-67
2023/03/28 07:10:34;;;;;;;;;;;;;;;8.76;49.60;97769.38;4218773;28;5679;-66
2023/03/28 07:12:38;;;;;;;;;;;;;;;8.71;49.64;97772.47;4218490;28;5746;-67
2023/03/28 07:14:43;;;;;;;;;;;;;;;8.74;49.88;97774.00;4216466;28;5681;-67
2023/03/28 07:16:46;;;;;;;;;;;;;;;8.73;49.47;97773.16;4218123;28;5671;-66
2023/03/28 07:18:49;;;;;;;;;;;;;;;8.75;49.72;97783.56;4217917;28;5647;-66
2023/03/28 07:20:53;;;;;;;;;;;;;;;8.81;49.67;97782.09;4218840;28;5758;-66
2023/03/28 07:23:06;;;;;;;;;;;;;;;8.84;49.41;97782.63;4218128;28;5683;-67
2023/03/28 07:25:09;;;;;;;;;;;;;;;8.88;49.30;97780.47;4217816;28;6490;-68
2023/03/28 07:27:12;;;;;;;;;;;;;;;8.87;49.11;97781.47;4218907;28;5698;-67
2023/03/28 07:29:18;;;;;;;;;;;;;;;8.90;49.46;97789.88;4215594;28;5910;-67
2023/03/28 07:31:23;;;;;;;;;;;;;;;8.91;49.30;97791.53;4215960;28;5640;-67
2023/03/28 07:33:26;;;;;;;;;;;;;;;8.94;49.28;97798.28;4217484;28;5750;-66
2023/03/28 07:35:40;;;;;;;;;;;;;;;8.98;49.11;97799.66;4218841;28;6562;-67
2023/03/28 07:37:43;;;;;;;;;;;;;;;8.99;49.05;97798.66;4202323;28;5697;-67
2023/03/28 07:39:47;;;;;;;;;;;;;;;9.00;48.98;97798.50;4205574;28;5877;-66
2023/03/28 07:41:50;;;;;;;;;;;;;;;9.01;49.27;97802.78;4214990;28;5742;-67
2023/03/28 07:43:53;;;;;;;;;;;;;;;9.04;48.93;97802.47;4218709;28;5667;-66
2023/03/28 07:46:00;;;;;;;;;;;;;;;9.10;48.86;97811.56;4217333;28;5761;-66
2023/03/28 07:48:04;;;;;;;;;;;;;;;9.13;48.83;97803.31;4218224;28;5869;-66
2023/03/28 07:50:09;;;;;;;;;;;;;;;9.17;48.68;97809.91;4201593;28;5716;-66
2023/03/28 07:52:27;;;;;;;;;;;;;;;9.18;48.32;97801.06;4213533;28;5921;-66
2023/03/28 07:54:35;;;;;;;;;;;;;;;9.16;48.48;97812.72;4217288;28;5759;-66
2023/03/28 07:56:38;;;;;;;;;;;;;;;9.21;48.44;97810.44;4217896;28;5813;-67
2023/03/28 07:58:42;;;;;;;;;;;;;;;9.21;48.35;97808.63;4217279;28;5671;-66
2023/03/28 08:00:45;;;;;;;;;;;;;;;9.21;48.58;97816.56;4216808;28;5770;-67
2023/03/28 08:02:48;;;;;;;;;;;;;;;9.18;48.27;97816.88;4217269;28;6340;-67
2023/03/28 08:04:53;;;;;;;;;;;;;;;9.21;48.21;97815.72;4217350;28;5754;-67
2023/03/28 08:06:56;;;;;;;;;;;;;;;9.24;48.26;97816.22;4216567;28;5771;-66
2023/03/28 08:09:00;;;;;;;;;;;;;;;9.25;48.04;97807.31;4216292;28;5908;-67
2023/03/28 08:11:03;;;;;;;;;;;;;;;9.27;48.06;97809.78;4215703;28;5869;-67
2023/03/28 08:13:06;;;;;;;;;;;;;;;9.24;48.37;97818.88;4216855;28;5675;-67
2023/03/28 08:15:11;;;;;;;;;;;;;;;9.25;48.23;97809.13;4215560;28;5674;-67
2023/03/28 08:17:14;;;;;;;;;;;;;;;9.29;48.22;97811.31;4217274;28;5792;-66
2023/03/28 08:19:17;;;;;;;;;;;;;;;9.32;48.14;97813.63;4217911;28;5663;-67
2023/03/28 08:21:22;;;;;;;;;;;;;;;9.36;48.08;97821.22;4216693;28;5656;-67
2023/03/28 08:23:28;;;;;;;;;;;;;;;9.30;48.02;97825.31;4218360;28;5667;-67
2023/03/28 08:25:31;;;;;;;;;;;;;;;9.30;48.18;97831.44;4218212;28;5758;-66
2023/03/28 08:27:34;;;;;;;;;;;;;;;9.33;47.83;97835.56;4217920;28;5799;-67
2023/03/28 08:29:37;;;;;;;;;;;;;;;9.34;47.77;97847.75;4218059;28;6361;-66
2023/03/28 08:31:40;;;;;;;;;;;;;;;9.35;47.52;97838.84;4215133;28;5659;-67
2023/03/28 08:33:46;;;;;;;;;;;;;;;9.35;47.67;97838.84;4215915;28;5671;-67
2023/03/28 08:35:51;;;;;;;;;;;;;;;9.38;47.59;97827.16;4216848;28;5770;-67
2023/03/28 08:37:56;;;;;;;;;;;;;;;9.41;47.61;97834.78;4217788;28;5672;-67
2023/03/28 08:40:00;;;;;;;;;;;;;;;9.41;47.36;97837.41;4217537;28;6365;-67
2023/03/28 08:42:36;;;;;;;;;;;;;;;9.44;47.03;97835.25;4216242;28;5675;-66
2023/03/28 08:44:53;;;;;;;;;;;;;;;9.44;47.16;97837.91;4213662;28;5864;-67
2023/03/28 08:47:03;;;;;;;;;;;;;;;9.39;47.08;97836.72;4215501;28;5850;-66
2023/03/28 08:49:11;;;;;;;;;;;;;;;9.39;47.19;97845.47;4247221;27;5586;-67
2023/03/28 08:51:22;;;;;;;;;;;;;;;9.42;47.30;97834.59;4206442;28;5815;-67
2023/03/28 08:53:34;;;;;;;;;;;;;;;9.44;47.04;97829.16;4216659;28;5687;-68
2023/03/28 08:55:40;;;;;;;;;;;;;;;9.49;47.10;97829.50;4204587;28;5659;-67
2023/03/28 08:57:45;;;;;;;;;;;;;;;9.52;46.92;97829.19;4217087;28;5668;-67
2023/03/28 08:59:55;;;;;;;;;;;;;;;9.52;46.98;97835.28;4216498;28;5667;-67
2023/03/28 09:01:58;;;;;;;;;;;;;;;9.59;46.79;97832.81;4215819;28;5742;-67
2023/03/28 09:04:01;;;;;;;;;;;;;;;9.60;46.57;97837.09;4216485;28;5762;-67
2023/03/28 09:06:25;;;;;;;;;;;;;;;9.59;46.62;97838.09;4215563;28;5901;-67
2023/03/28 09:08:41;;;;;;;;;;;;;;;9.58;46.66;97839.09;4217478;28;5664;-67
2023/03/28 09:10:47;;;;;;;;;;;;;;;9.64;46.55;97833.19;4214990;28;5754;-67
2023/03/28 09:13:03;;;;;;;;;;;;;;;9.68;46.46;97825.75;4215803;28;5671;-67
2023/03/28 09:15:19;;;;;;;;;;;;;;;9.73;46.29;97828.72;4212204;28;5664;-67
2023/03/28 09:17:33;;;;;;;;;;;;;;;9.70;46.20;97827.22;4216383;28;5698;-68
2023/03/28 09:19:47;;;;;;;;;;;;;;;9.73;46.40;97824.25;4216449;28;5668;-68
2023/03/28 09:22:04;;;;;;;;;;;;;;;9.76;46.36;97829.25;4216319;28;6357;-67
2023/03/28 09:24:31;;;;;;;;;;;;;;;9.80;46.21;97827.09;4216463;28;5671;-67
2023/03/28 09:26:37;;;;;;;;;;;;;;;9.83;46.30;97824.13;4202304;28;5710;-68
2023/03/28 09:28:48;;;;;;;;;;;;;;;9.84;45.99;97820.47;4212637;28;5866;-68
2023/03/28 09:30:54;;;;;;;;;;;;;;;9.82;46.10;97819.81;4214905;28;5782;-67
2023/03/28 09:33:03;;;;;;;;;;;;;;;9.79;46.03;97828.91;4215281;28;5660;-68
2023/03/28 09:35:15;;;;;;;;;;;;;;;9.79;46.21;97822.81;4216343;28;5664;-68
2023/03/28 09:37:28;;;;;;;;;;;;;;;9.80;46.04;97833.19;4208712;28;5685;-68
2023/03/28 09:39:36;;;;;;;;;;;;;;;9.84;45.88;97826.59;4216281;28;5666;-67
2023/03/28 09:41:47;;;;;;;;;;;;;;;9.85;46.08;97825.63;4211626;28;5749;-67
2023/03/28 09:43:55;;;;;;;;;;;;;;;9.87;45.87;97828.09;4219049;28;5630;-68
2023/03/28 09:46:03;;;;;;;;;;;;;;;9.88;45.71;97822.66;4216071;28;5750;-67
2023/03/28 09:48:13;;;;;;;;;;;;;;;9.90;45.88;97820.66;4216477;28;5096;-67
2023/03/28 09:50:21;;;;;;;;;;;;;;;9.90;45.46;97804.81;4208013;28;7854;-67
2023/03/28 09:52:24;;;;;;;;;;;;;;;9.95;45.50;97808.78;4215696;28;5858;-68
2023/03/28 09:54:30;;;;;;;;;;;;;;;10.02;45.48;97809.78;4215571;28;5897;-66
2023/03/28 09:56:38;;;;;;;;;;;;;;;10.07;45.24;97813.56;4217037;28;5926;-67
2023/03/28 09:58:50;;;;;;;;;;;;;;;10.12;45.40;97813.09;4216812;28;5100;-67
2023/03/28 10:00:54;;;;;;;;;;;;;;;10.19;45.31;97811.41;4216430;28;7725;-66
2023/03/28 10:02:57;;;;;;;;;;;;;;;10.18;45.25;97812.41;4216101;28;5683;-67
2023/03/28 10:05:01;;;;;;;;;;;;;;;10.22;45.21;97811.13;4216128;28;5757;-67
2023/03/28 10:07:29;;;;;;;;;;;;;;;10.28;45.33;97810.47;4208933;28;5081;-66
2023/03/28 10:09:32;;;;;;;;;;;;;;;10.41;45.22;97813.41;4215851;28;5692;-67
2023/03/28 10:11:48;;;;;;;;;;;;;;;10.47;45.00;97817.22;4216225;28;5830;-66
2023/03/28 10:13:54;;;;;;;;;;;;;;;10.50;45.24;97823.00;4215935;28;6866;-67
2023/03/28 10:15:58;;;;;;;;;;;;;;;10.52;45.11;97811.41;4212640;28;5675;-67
2023/03/28 10:18:04;;;;;;;;;;;;;;;10.54;44.97;97812.09;4216618;28;5687;-67
2023/03/28 10:20:16;;;;;;;;;;;;;;;10.55;45.08;97811.94;4212712;28;5772;-66
2023/03/28 10:22:24;;;;;;;;;;;;;;;10.57;44.84;97803.81;4215421;28;5925;-67
2023/03/28 10:24:28;;;;;;;;;;;;;;;10.58;44.85;97802.81;4214669;28;5663;-67
2023/03/28 10:26:31;;;;;;;;;;;;;;;10.60;44.68;97808.75;4216380;28;5741;-67
2023/03/28 10:28:37;;;;;;;;;;;;;;;10.61;44.45;97805.13;4219333;28;5679;-67
2023/03/28 10:30:41;;;;;;;;;;;;;;;10.61;44.61;97807.78;4207227;28;6234;-67
2023/03/28 10:32:43;;;;;;;;;;;;;;;10.69;44.49;97823.63;4203355;28;5744;-67
2023/03/28 10:34:59;;;;;;;;;;;;;;;10.77;44.28;97827.09;4205581;28;6766;-67
2023/03/28 10:37:02;;;;;;;;;;;;;;;10.84;44.17;97824.56;4217661;28;5758;-66
2023/03/28 10:39:21;;;;;;;;;;;;;;;10.86;44.28;97819.94;4219302;28;5289;-67
2023/03/28 10:41:25;;;;;;;;;;;;;;;10.93;44.18;97825.38;4213418;28;7714;-66
2023/03/28 10:43:36;;;;;;;;;;;;;;;11.01;44.35;97822.72;4219491;28;5630;-67
2023/03/28 10:45:41;;;;;;;;;;;;;;;11.05;43.86;97829.31;4217226;28;5619;-68
2023/03/28 10:47:44;;;;;;;;;;;;;;;11.04;43.81;97833.78;4219675;28;5679;-67
2023/03/28 10:49:51;;;;;;;;;;;;;;;11.04;43.93;97847.00;4219234;28;5687;-67
2023/03/28 10:51:55;;;;;;;;;;;;;;;11.02;43.74;97834.94;4216021;28;5683;-68
2023/03/28 10:54:21;;;;;;;;;;;;;;;11.00;44.12;97835.13;4218354;28;5738;-67
2023/03/28 10:56:32;;;;;;;;;;;;;;;11.00;43.99;97821.06;4215717;28;5663;-66
2023/03/28 10:58:40;;;;;;;;;;;;;;;11.02;43.61;97817.25;4219230;28;5687;-67
2023/03/28 11:00:51;;;;;;;;;;;;;;;10.97;43.72;97822.22;4219577;28;5671;-67
2023/03/28 11:03:10;;;;;;;;;;;;;;;10.88;44.04;97817.16;4219266;28;5192;-66
2023/03/28 11:05:32;;;;;;;;;;;;;;;10.76;43.95;97825.44;4219408;28;7717;-67
2023/03/28 11:07:43;;;;;;;;;;;;;;;10.77;44.17;97813.03;4216402;28;5672;-67
2023/03/28 11:09:55;;;;;;;;;;;;;;;10.75;43.99;97818.47;4216156;28;5667;-66
2023/03/28 11:12:07;;;;;;;;;;;;;;;10.78;44.07;97825.28;4216367;28;5802;-67
2023/03/28 11:14:19;;;;;;;;;;;;;;;10.78;44.17;97828.75;4219459;28;5811;-67
2023/03/28 11:16:36;;;;;;;;;;;;;;;10.81;44.22;97832.84;4218163;28;5734;-67
2023/03/28 11:18:52;;;;;;;;;;;;;;;10.78;44.08;97834.03;4219026;28;5664;-66
2023/03/28 11:21:07;;;;;;;;;;;;;;;10.75;44.31;97817.66;4218667;28;5864;-66
2023/03/28 11:23:37;;;;;;;;;;;;;;;10.77;43.97;97810.41;4219330;28;5765;-66
2023/03/28 11:25:45;;;;;;;;;;;;;;;10.79;44.22;97813.69;4218238;28;5751;-67
2023/03/28 11:27:58;;;;;;;;;;;;;;;10.79;44.04;97808.41;4217324;28;5770;-67
2023/03/28 11:30:10;;;;;;;;;;;;;;;10.80;44.20;97804.75;4211104;28;5734;-67
2023/03/28 11:32:18;;;;;;;;;;;;;;;10.80;44.18;97815.34;4214721;28;5846;-66
2023/03/28 11:34:28;;;;;;;;;;;;;;;10.78;44.67;97802.28;4212676;28;5675;-67
2023/03/28 11:36:36;;;;;;;;;;;;;;;10.79;44.43;97806.59;4218636;28;5786;-66
2023/03/28 11:38:42;;;;;;;;;;;;;;;10.79;44.54;97803.09;4217941;28;5667;-66
2023/03/28 11:40:52;;;;;;;;;;;;;;;10.77;44.42;97798.00;4218390;28;5679;-67
2023/03/28 11:42:57;;;;;;;;;;;;;;;10.80;44.49;97794.19;4218925;28;5683;-67
2023/03/28 11:45:07;;;;;;;;;;;;;;;10.83;44.56;97780.59;4218524;28;5660;-66
2023/03/28 11:47:16;;;;;;;;;;;;;;;10.87;44.60;97773.16;4210604;28;5675;-67
2023/03/28 11:49:24;;;;;;;;;;;;;;;10.91;44.22;97770.00;4217671;28;5683;-66
2023/03/28 11:51:33;;;;;;;;;;;;;;;10.91;44.69;97774.47;4216543;28;5844;-67
2023/03/28 11:53:41;;;;;;;;;;;;;;;10.93;44.41;97768.00;4217301;28;5680;-67
2023/03/28 11:55:50;;;;;;;;;;;;;;;10.90;44.60;97773.66;4218439;28;5660;-67
2023/03/28 11:57:59;;;;;;;;;;;;;;;10.91;44.61;97779.75;4216949;28;5774;-67
2023/03/28 12:00:20;;;;;;;;;;;;;;;10.90;44.15;97776.28;4218011;28;5791;-67
2023/03/28 12:02:41;;;;;;;;;;;;;;;10.89;44.32;97769.34;4213168;28;6499;-68
2023/03/28 12:04:49;;;;;;;;;;;;;;;10.87;44.20;97763.38;4210241;28;5954;-67
2023/03/28 12:07:06;;;;;;;;;;;;;;;10.87;44.34;97750.16;4217526;28;6776;-68
2023/03/28 12:09:15;;;;;;;;;;;;;;;10.90;44.42;97747.19;4209834;28;5659;-67
2023/03/28 12:11:25;;;;;;;;;;;;;;;10.96;44.36;97750.97;4216839;28;5902;-67
2023/03/28 12:13:32;;;;;;;;;;;;;;;10.97;44.57;97747.31;4217483;28;5840;-67
2023/03/28 12:15:51;;;;;;;;;;;;;;;10.95;44.37;97755.44;4217745;28;7045;-67
2023/03/28 12:17:59;;;;;;;;;;;;;;;10.94;44.50;97753.78;4211859;28;5831;-67
2023/03/28 12:20:06;;;;;;;;;;;;;;;10.94;44.46;97745.03;4216326;28;5691;-68
2023/03/28 12:22:20;;;;;;;;;;;;;;;10.99;44.64;97746.16;4213161;28;5754;-68
2023/03/28 12:24:28;;;;;;;;;;;;;;;11.02;44.47;97745.81;4217207;28;6570;-68
2023/03/28 12:26:43;;;;;;;;;;;;;;;11.04;44.36;97741.16;4215613;28;5876;-68
2023/03/28 12:28:52;;;;;;;;;;;;;;;11.09;44.51;97748.56;4214697;28;5753;-67
2023/03/28 12:31:09;;;;;;;;;;;;;;;11.15;44.34;97729.38;4217077;28;5865;-67
2023/03/28 12:33:20;;;;;;;;;;;;;;;11.16;44.59;97732.84;4206999;28;5910;-67
2023/03/28 12:35:32;;;;;;;;;;;;;;;11.23;44.41;97728.50;4217316;28;5881;-67
2023/03/28 12:37:42;;;;;;;;;;;;;;;11.31;44.48;97733.72;4216807;28;6344;-67
2023/03/28 12:39:52;;;;;;;;;;;;;;;11.33;44.25;97721.19;4215742;28;5781;-67
2023/03/28 12:41:58;;;;;;;;;;;;;;;11.32;44.25;97728.25;4225101;28;5766;-67
2023/03/28 12:44:07;;;;;;;;;;;;;;;11.31;44.41;97728.44;4210107;28;5663;-68
2023/03/28 12:46:15;;;;;;;;;;;;;;;11.28;44.56;97721.69;4206465;28;5856;-67
2023/03/28 12:48:29;;;;;;;;;;;;;;;11.29;44.21;97719.84;4217728;28;5695;-67
2023/03/28 12:50:33;;;;;;;;;;;;;;;11.33;44.15;97718.53;4209924;28;5758;-67
2023/03/28 12:52:38;;;;;;;;;;;;;;;11.31;44.45;97709.91;4213312;28;5058;-67
2023/03/28 12:54:54;;;;;;;;;;;;;;;11.31;44.32;97707.25;4216630;28;5687;-67
2023/03/28 12:57:03;;;;;;;;;;;;;;;11.34;44.43;97696.34;4216305;28;5766;-67
2023/03/28 12:59:36;;;;;;;;;;;;;;;11.32;44.23;97698.31;4217397;28;5679;-68
2023/03/28 13:01:47;;;;;;;;;;;;;;;11.32;44.47;97693.84;4212140;28;5806;-67
2023/03/28 13:04:00;;;;;;;;;;;;;;;11.35;44.24;97690.06;4215279;28;5751;-68
2023/03/28 13:06:11;;;;;;;;;;;;;;;11.36;44.63;97683.75;4213598;28;5663;-67
2023/03/28 13:08:22;;;;;;;;;;;;;;;11.32;44.42;97683.25;4216382;28;5627;-67
2023/03/28 13:10:36;;;;;;;;;;;;;;;11.30;44.35;97687.09;4205679;28;5911;-68
2023/03/28 13:12:52;;;;;;;;;;;;;;;11.32;44.71;97683.25;4207498;28;5704;-67
2023/03/28 13:15:01;;;;;;;;;;;;;;;11.32;44.74;97682.44;4216087;28;5751;-67
2023/03/28 13:17:20;;;;;;;;;;;;;;;11.33;44.36;97684.13;4217238;28;5730;-67
2023/03/28 13:19:38;;;;;;;;;;;;;;;11.36;44.53;97678.47;4216630;28;5799;-66
2023/03/28 13:21:43;;;;;;;;;;;;;;;11.42;44.33;97682.22;4216305;28;5748;-67
2023/03/28 13:23:48;;;;;;;;;;;;;;;11.41;44.27;97676.09;4217101;28;5679;-68
2023/03/28 13:25:54;;;;;;;;;;;;;;;11.40;44.75;97665.69;4215822;28;6472;-68
2023/03/28 13:28:21;;;;;;;;;;;;;;;11.40;44.35;97676.28;4217153;28;5810;-67
2023/03/28 13:30:27;;;;;;;;;;;;;;;11.39;44.79;97662.22;4212238;28;5878;-67
2023/03/28 13:32:37;;;;;;;;;;;;;;;11.43;44.38;97660.84;4215085;28;6453;-67
2023/03/28 13:34:47;;;;;;;;;;;;;;;11.46;44.87;97657.88;4215122;28;5794;-67
2023/03/28 13:36:53;;;;;;;;;;;;;;;11.50;44.49;97668.91;4217079;28;5686;-68
2023/03/28 13:39:08;;;;;;;;;;;;;;;11.49;44.77;97661.97;4216947;28;5758;-67
2023/03/28 13:41:32;;;;;;;;;;;;;;;11.50;44.71;97656.50;4212284;28;5671;-67
2023/03/28 13:43:41;;;;;;;;;;;;;;;11.50;44.58;97658.31;4214831;28;5845;-68
2023/03/28 13:45:46;;;;;;;;;;;;;;;11.50;44.85;97653.03;4215380;28;5661;-68
2023/03/28 13:47:50;;;;;;;;;;;;;;;11.51;44.93;97658.16;4216727;28;5738;-67
2023/03/28 13:50:19;;;;;;;;;;;;;;;11.52;44.67;97659.78;4216889;28;5683;-67
2023/03/28 13:52:24;;;;;;;;;;;;;;;11.51;44.50;97658.16;4216732;28;5675;-67
2023/03/28 13:54:27;;;;;;;;;;;;;;;11.52;44.93;97657.13;4208485;28;5692;-67
2023/03/28 13:56:32;;;;;;;;;;;;;;;11.53;44.64;97652.66;4211987;28;5759;-67
2023/03/28 13:58:36;;;;;;;;;;;;;;;11.57;44.66;97654.81;4214558;28;5782;-67
2023/03/28 14:00:39;;;;;;;;;;;;;;;11.61;44.60;97647.31;4216758;28;5655;-68
2023/03/28 14:02:45;;;;;;;;;;;;;;;11.61;44.35;97655.25;4216196;28;5667;-68
2023/03/28 14:04:55;;;;;;;;;;;;;;;11.62;44.49;97657.72;4216314;28;5940;-67
2023/03/28 14:06:59;;;;;;;;;;;;;;;11.60;44.64;97654.44;4215959;28;5699;-67
2023/03/28 14:09:03;;;;;;;;;;;;;;;11.61;44.45;97644.66;4218402;28;5683;-68
2023/03/28 14:11:07;;;;;;;;;;;;;;;11.63;44.34;97651.41;4219525;28;5937;-67
2023/03/28 14:13:14;;;;;;;;;;;;;;;11.65;44.26;97645.94;4219447;28;5763;-67
2023/03/28 14:15:23;;;;;;;;;;;;;;;11.68;44.42;97644.78;4219925;28;5779;-68
2023/03/28 14:17:29;;;;;;;;;;;;;;;11.68;44.57;97642.13;4218634;28;5681;-68
2023/03/28 14:19:37;;;;;;;;;;;;;;;11.66;44.44;97643.13;4218616;28;5890;-67
2023/03/28 14:21:41;;;;;;;;;;;;;;;11.67;44.43;97649.25;4219867;28;5698;-67
2023/03/28 14:23:56;;;;;;;;;;;;;;;11.64;44.31;97636.34;4219054;28;6369;-67
2023/03/28 14:26:01;;;;;;;;;;;;;;;11.67;44.48;97633.38;4219734;28;5755;-68
2023/03/28 14:28:08;;;;;;;;;;;;;;;11.66;44.60;97627.25;4220503;28;5742;-68
2023/03/28 14:30:18;;;;;;;;;;;;;;;11.69;44.68;97627.88;4219554;28;5663;-69
2023/03/28 14:32:25;;;;;;;;;;;;;;;11.69;44.42;97622.59;4213326;28;5692;-68
2023/03/28 14:34:31;;;;;;;;;;;;;;;11.69;44.41;97626.06;4217134;28;5788;-68
2023/03/28 14:36:36;;;;;;;;;;;;;;;11.70;44.33;97613.63;4217031;28;6487;-68
2023/03/28 14:38:41;;;;;;;;;;;;;;;11.69;44.27;97619.94;4224056;28;5790;-68
2023/03/28 14:40:45;;;;;;;;;;;;;;;11.66;44.67;97610.50;4218350;28;5682;-68
2023/03/28 14:42:50;;;;;;;;;;;;;;;11.70;44.77;97611.81;4219052;28;5758;-68
2023/03/28 14:44:54;;;;;;;;;;;;;;;11.73;44.33;97616.75;4219420;28;5667;-70
2023/03/28 14:46:59;;;;;;;;;;;;;;;11.71;44.51;97610.81;4216145;28;5764;-68
2023/03/28 14:49:08;;;;;;;;;;;;;;;11.74;44.52;97621.03;4217914;28;6376;-67
2023/03/28 14:51:13;;;;;;;;;;;;;;;11.75;44.28;97616.56;4211115;28;5889;-68
2023/03/28 14:53:19;;;;;;;;;;;;;;;11.76;44.25;97626.16;4219116;28;5683;-68
2023/03/28 14:55:25;;;;;;;;;;;;;;;11.75;44.26;97619.19;4214340;28;5775;-68
2023/03/28 14:57:29;;;;;;;;;;;;;;;11.76;44.33;97615.53;4214288;28;5905;-69
2023/03/28 14:59:35;;;;;;;;;;;;;;;11.74;44.26;97612.25;4214913;28;5145;-68
2023/03/28 15:01:38;;;;;;;;;;;;;;;11.72;44.15;97608.97;4217743;28;5830;-67
2023/03/28 15:03:44;;;;;;;;;;;;;;;11.71;44.10;97605.50;4215800;28;5671;-68
2023/03/28 15:05:50;;;;;;;;;;;;;;;11.70;44.21;97605.69;4214589;28;5866;-68
2023/03/28 15:07:57;;;;;;;;;;;;;;;11.69;44.26;97610.16;4215638;28;5684;-68
2023/03/28 15:10:09;;;;;;;;;;;;;;;11.70;44.06;97613.63;4219490;28;5783;-68
2023/03/28 15:12:16;;;;;;;;;;;;;;;11.70;44.16;97611.00;4216663;28;5818;-68
2023/03/28 15:14:30;;;;;;;;;;;;;;;11.71;44.46;97609.97;4215276;28;5755;-68
2023/03/28 15:16:38;;;;;;;;;;;;;;;11.71;44.02;97608.16;4213760;28;5770;-68
2023/03/28 15:18:46;;;;;;;;;;;;;;;11.73;44.09;97608.78;4214512;28;5721;-68
2023/03/28 15:20:54;;;;;;;;;;;;;;;11.74;44.21;97610.44;4211695;28;5779;-68
2023/03/28 15:22:59;;;;;;;;;;;;;;;11.74;44.12;97613.09;4213171;28;6204;-68
2023/03/28 15:25:02;;;;;;;;;;;;;;;11.77;43.98;97606.59;4213713;27;5788;-68
2023/03/28 15:27:08;;;;;;;;;;;;;;;11.78;43.79;97609.09;4213307;28;5667;-68
2023/03/28 15:29:17;;;;;;;;;;;;;;;11.82;44.16;97617.53;4217658;28;5672;-69
2023/03/28 15:31:21;;;;;;;;;;;;;;;11.84;44.03;97612.84;4215336;28;5671;-68
2023/03/28 15:33:25;;;;;;;;;;;;;;;11.86;43.79;97598.41;4215144;28;5865;-69
2023/03/28 15:35:32;;;;;;;;;;;;;;;11.87;43.90;97601.88;4217134;28;5671;-68
2023/03/28 15:37:41;;;;;;;;;;;;;;;11.93;43.83;97598.53;4216859;28;5664;-68
2023/03/28 15:39:48;;;;;;;;;;;;;;;11.94;44.03;97602.81;4212393;28;5664;-68
2023/03/28 15:41:54;;;;;;;;;;;;;;;11.93;43.86;97601.19;4217102;28;5660;-68
2023/03/28 15:44:09;;;;;;;;;;;;;;;11.94;43.81;97603.66;4218048;28;5777;-68
2023/03/28 15:46:15;;;;;;;;;;;;;;;11.98;43.46;97598.78;4217424;28;5813;-68
2023/03/28 15:48:19;;;;;;;;;;;;;;;12.00;43.47;97602.06;4210010;28;5751;-68
2023/03/28 15:50:26;;;;;;;;;;;;;;;12.01;43.72;97603.75;4215038;28;5671;-67
2023/03/28 15:52:30;;;;;;;;;;;;;;;12.01;43.35;97598.44;4210501;28;5676;-67
2023/03/28 15:54:41;;;;;;;;;;;;;;;12.03;43.45;97592.97;4211280;28;5762;-67
2023/03/28 15:56:47;;;;;;;;;;;;;;;12.03;43.72;97591.13;4215405;28;5829;-73
2023/03/28 15:58:50;;;;;;;;;;;;;;;12.06;43.52;97579.34;4215589;28;5659;-70
2023/03/28 16:00:54;;;;;;;;;;;;;;;12.06;43.85;97577.50;4214611;28;5802;-69
2023/03/28 16:03:16;;;;;;;;;;;;;;;12.07;43.31;97576.50;4215136;28;6475;-70
2023/03/28 16:05:32;;;;;;;;;;;;;;;12.05;43.58;97573.22;4215034;28;5817;-75
2023/03/28 16:07:49;;;;;;;;;;;;;;;12.06;43.46;97566.91;4211874;28;5841;-73
2023/03/28 16:09:52;;;;;;;;;;;;;;;12.09;43.39;97565.72;4215519;28;5090;-67
2023/03/28 16:11:59;;;;;;;;;;;;;;;12.13;43.35;97561.72;4213015;28;7719;-69
2023/03/28 16:14:02;;;;;;;;;;;;;;;12.13;43.38;97564.38;4215270;28;5694;-71
2023/03/28 16:16:06;;;;;;;;;;;;;;;12.12;43.15;97558.25;4215559;28;5676;-69
2023/03/28 16:18:10;;;;;;;;;;;;;;;12.12;43.29;97563.53;4217481;28;5671;-68
2023/03/28 16:20:16;;;;;;;;;;;;;;;12.13;43.31;97549.28;4212186;28;5885;-72
2023/03/28 16:22:19;;;;;;;;;;;;;;;12.12;43.05;97550.28;4216001;28;5683;-72
2023/03/28 16:24:22;;;;;;;;;;;;;;;12.11;42.63;97550.44;4212284;28;5674;-65
2023/03/28 16:26:25;;;;;;;;;;;;;;;12.10;42.75;97546.97;4210414;28;5827;-66
2023/03/28 16:28:28;;;;;;;;;;;;;;;12.10;42.73;97554.09;4212881;28;5762;-65
2023/03/28 16:30:35;;;;;;;;;;;;;;;12.05;42.65;97545.91;4216209;28;5814;-68
2023/03/28 16:32:38;;;;;;;;;;;;;;;12.03;42.85;97548.72;4211224;28;5850;-66
2023/03/28 16:34:43;;;;;;;;;;;;;;;12.01;42.46;97553.41;4213702;28;5667;-66
2023/03/28 16:36:46;;;;;;;;;;;;;;;11.98;42.99;97550.28;4216652;28;5802;-66
2023/03/28 16:38:49;;;;;;;;;;;;;;;11.98;42.65;97551.09;4213837;28;5811;-67
2023/03/28 16:40:52;;;;;;;;;;;;;;;11.98;42.63;97555.56;4212381;28;5726;-67
2023/03/28 16:42:55;;;;;;;;;;;;;;;11.99;42.62;97557.22;4213782;28;5738;-66
2023/03/28 16:44:58;;;;;;;;;;;;;;;11.99;42.84;97542.13;4212482;28;5762;-66
2023/03/28 16:47:02;;;;;;;;;;;;;;;11.99;42.57;97539.50;4215849;28;5682;-66
2023/03/28 16:49:06;;;;;;;;;;;;;;;12.02;42.59;97535.66;4212158;28;5774;-69
2023/03/28 16:51:10;;;;;;;;;;;;;;;12.01;42.56;97534.03;4215263;28;5955;-68
2023/03/28 16:53:13;;;;;;;;;;;;;;;12.00;42.74;97538.47;4215557;28;5769;-69
2023/03/28 16:55:17;;;;;;;;;;;;;;;11.98;42.52;97537.84;4218557;28;5858;-68
2023/03/28 16:57:20;;;;;;;;;;;;;;;11.97;42.40;97527.44;4209138;28;5636;-68
2023/03/28 16:59:23;;;;;;;;;;;;;;;11.95;42.52;97530.28;4212406;28;5082;-68
2023/03/28 17:01:26;;;;;;;;;;;;;;;11.94;42.15;97533.94;4211562;28;5974;-70
2023/03/28 17:03:29;;;;;;;;;;;;;;;11.93;42.24;97533.09;4215442;28;5759;-68
2023/03/28 17:05:32;;;;;;;;;;;;;;;11.94;41.89;97533.94;4216662;28;5797;-69
2023/03/28 17:07:36;;;;;;;;;;;;;;;11.92;42.05;97528.00;4215860;28;5869;-68